Time,TemperatureF,DewpointF,PressureIn,WindDirection,WindDirectionDegrees,WindSpeedMPH,WindSpeedGustMPH,Humidity,HourlyPrecipIn,Conditions,Clouds,dailyrainin,SoftwareType,DateUTC
2013-12-21 00:12:00,33.0,31.0,29.94,North,360,6.0,9.0,94,0.00,,,0.11,,2013-12-21 05:12:00,
2013-12-21 00:22:00,33.0,31.0,29.93,NNE,18,5.0,10.0,94,0.01,,,0.12,,2013-12-21 05:22:00,
2013-12-21 00:42:00,33.0,31.0,29.93,NE,40,4.0,8.0,94,0.01,,,0.12,,2013-12-21 05:42:00,
2013-12-21 00:52:00,33.0,31.0,29.95,North,9,2.0,7.0,94,0.01,,,0.12,,2013-12-21 05:52:00,
2013-12-21 01:22:00,33.0,31.0,29.92,NE,44,4.0,11.0,94,0.01,,,0.13,,2013-12-21 06:22:00,
2013-12-21 01:52:00,32.0,30.0,29.92,NNE,26,3.0,6.0,94,0.01,,,0.13,,2013-12-21 06:52:00,
2013-12-21 02:22:00,32.0,30.0,29.93,NNW,348,3.0,7.0,94,0.00,,,0.13,,2013-12-21 07:22:00,
2013-12-21 02:42:00,32.0,30.0,29.93,NNE,21,3.0,6.0,94,0.01,,,0.14,,2013-12-21 07:42:00,
2013-12-21 02:53:00,32.0,30.0,29.93,NE,40,3.0,7.0,94,0.02,,,0.15,,2013-12-21 07:53:00,
2013-12-21 03:22:00,32.0,30.0,29.93,NE,48,4.0,8.0,94,0.04,,,0.17,,2013-12-21 08:22:00,
2013-12-21 03:42:00,32.0,30.0,29.93,NNE,22,4.0,8.0,94,0.03,,,0.17,,2013-12-21 08:42:00,
2013-12-21 03:52:00,32.0,30.0,29.93,NNE,31,3.0,8.0,94,0.02,,,0.17,,2013-12-21 08:52:00,
2013-12-21 04:22:00,32.0,30.0,29.93,NE,36,2.0,7.0,94,0.03,,,0.20,,2013-12-21 09:22:00,
2013-12-21 04:54:00,32.0,31.0,29.90,NNE,24,3.0,7.0,95,0.03,,,0.20,,2013-12-21 09:54:00,
2013-12-21 05:23:00,31.0,30.0,29.91,NE,36,1.0,8.0,95,0.00,,,0.20,,2013-12-21 10:23:00,
2013-12-21 05:53:00,31.0,30.0,29.91,NNE,22,3.0,8.0,95,0.00,,,0.20,,2013-12-21 10:53:00,
2013-12-21 06:12:00,31.0,30.0,29.91,NE,43,1.0,6.0,95,0.00,,,0.20,,2013-12-21 11:12:00,
2013-12-21 06:23:00,31.0,30.0,29.91,NNE,25,2.0,6.0,95,0.00,,,0.20,,2013-12-21 11:23:00,
2013-12-21 06:42:00,31.0,30.0,29.92,North,355,2.0,6.0,95,0.00,,,0.20,,2013-12-21 11:42:00,
2013-12-21 06:53:00,31.0,30.0,29.93,NNE,12,2.0,6.0,95,0.00,,,0.20,,2013-12-21 11:53:00,
2013-12-21 07:12:00,31.0,29.0,29.91,NNE,28,1.0,5.0,94,0.00,,,0.20,,2013-12-21 12:12:00,
2013-12-21 07:22:00,31.0,30.0,29.90,NE,42,1.0,9.0,95,0.00,,,0.20,,2013-12-21 12:22:00,
2013-12-21 07:42:00,31.0,30.0,29.91,NE,55,1.0,3.0,95,0.00,,,0.20,,2013-12-21 12:42:00,
2013-12-21 07:52:00,31.0,30.0,29.91,NNE,12,0.0,2.0,95,0.00,,,0.20,,2013-12-21 12:52:00,
2013-12-21 08:22:00,31.0,30.0,29.91,NE,46,2.0,5.0,95,0.00,,,0.20,,2013-12-21 13:22:00,
2013-12-21 08:42:00,31.0,30.0,29.91,NNE,26,3.0,9.0,95,0.00,,,0.20,,2013-12-21 13:42:00,
2013-12-21 08:52:00,31.0,30.0,29.90,NNE,30,2.0,5.0,95,0.00,,,0.20,,2013-12-21 13:52:00,
2013-12-21 09:22:00,31.0,30.0,29.90,NE,43,3.0,7.0,95,0.01,,,0.21,,2013-12-21 14:22:00,
2013-12-21 09:42:00,31.0,30.0,29.90,NE,34,2.0,5.0,95,0.01,,,0.21,,2013-12-21 14:42:00,
2013-12-21 09:53:00,31.0,30.0,29.92,North,355,2.0,5.0,95,0.01,,,0.21,,2013-12-21 14:53:00,
2013-12-21 10:22:00,32.0,31.0,29.91,ENE,68,1.0,5.0,95,0.00,,,0.21,,2013-12-21 15:22:00,
2013-12-21 10:53:00,32.0,31.0,29.91,NE,40,0.0,1.0,95,0.01,,,0.22,,2013-12-21 15:53:00,
2013-12-21 11:23:00,33.0,32.0,29.91,NNE,31,0.0,2.0,95,0.02,,,0.23,,2013-12-21 16:23:00,
2013-12-21 11:53:00,33.0,32.0,29.89,NW,305,0.0,0.0,95,0.02,,,0.24,,2013-12-21 16:53:00,
2013-12-21 12:22:00,34.0,33.0,29.87,WNW,283,2.0,7.0,95,0.02,,,0.25,,2013-12-21 17:22:00,
2013-12-21 12:53:00,35.0,34.0,29.85,West,278,2.0,4.0,95,0.03,,,0.27,,2013-12-21 17:53:00,
2013-12-21 13:23:00,35.0,33.0,29.81,West,273,0.0,1.0,94,0.03,,,0.28,,2013-12-21 18:23:00,
2013-12-21 13:42:00,36.0,34.0,29.82,WNW,289,0.0,2.0,94,0.03,,,0.28,,2013-12-21 18:42:00,
2013-12-21 13:52:00,36.0,34.0,29.83,NW,325,0.0,3.0,94,0.04,,,0.31,,2013-12-21 18:52:00,
2013-12-21 14:22:00,37.0,35.0,29.82,WSW,250,0.0,3.0,94,0.03,,,0.32,,2013-12-21 19:22:00,
2013-12-21 14:42:00,37.0,35.0,29.83,SSW,206,0.0,4.0,93,0.04,,,0.32,,2013-12-21 19:42:00,
2013-12-21 14:52:00,36.0,34.0,29.83,West,271,1.0,4.0,93,0.03,,,0.33,,2013-12-21 19:52:00,
2013-12-21 15:23:00,36.0,34.0,29.84,West,263,0.0,4.0,93,0.02,,,0.34,,2013-12-21 20:23:00,
2013-12-21 15:52:00,36.0,34.0,29.85,North,355,3.0,5.0,93,0.02,,,0.35,,2013-12-21 20:52:00,
2013-12-21 16:22:00,35.0,33.0,29.87,NE,37,0.0,4.0,93,0.02,,,0.36,,2013-12-21 21:22:00,
2013-12-21 16:53:00,35.0,33.0,29.86,NE,37,0.0,1.0,93,0.02,,,0.37,,2013-12-21 21:53:00,
2013-12-21 17:23:00,35.0,33.0,29.86,ESE,115,0.0,0.0,94,0.02,,,0.38,,2013-12-21 22:23:00,
2013-12-21 17:53:00,35.0,33.0,29.86,South,178,2.0,5.0,94,0.02,,,0.39,,2013-12-21 22:53:00,
2013-12-21 18:22:00,35.0,33.0,29.88,SW,221,0.0,0.0,94,0.02,,,0.40,,2013-12-21 23:22:00,
2013-12-21 18:53:00,35.0,33.0,29.90,NNW,339,2.0,7.0,94,0.03,,,0.40,,2013-12-21 23:53:00,
2013-12-21 19:22:00,34.0,32.0,29.92,NE,42,3.0,7.0,94,0.04,,,0.42,,2013-12-22 00:22:00,
2013-12-21 19:52:00,34.0,32.0,29.91,NE,36,4.0,8.0,94,0.06,,,0.44,,2013-12-22 00:52:00,
2013-12-21 20:22:00,34.0,32.0,29.92,NNE,26,4.0,10.0,94,0.06,,,0.46,,2013-12-22 01:22:00,
2013-12-21 20:52:00,33.0,31.0,29.92,NE,36,4.0,9.0,94,0.03,,,0.45,,2013-12-22 01:52:00,
2013-12-21 21:22:00,33.0,31.0,29.92,NNE,32,3.0,9.0,94,0.01,,,0.45,,2013-12-22 02:22:00,
2013-12-21 21:52:00,33.0,31.0,29.93,NNE,32,5.0,12.0,94,0.01,,,0.44,,2013-12-22 02:52:00,
2013-12-21 22:22:00,33.0,31.0,29.92,NNE,13,6.0,11.0,94,0.01,,,0.44,,2013-12-22 03:22:00,
2013-12-21 22:43:00,33.0,32.0,29.93,NNE,30,5.0,11.0,95,0.01,,,0.43,,2013-12-22 03:43:00,
2013-12-21 22:54:00,33.0,32.0,29.93,North,355,6.0,13.0,95,0.00,,,0.43,,2013-12-22 03:54:00,
2013-12-21 23:03:00,-999.0,-99.9,29.93,NNE,23,8.0,16.0,-999,0.00,,,-99.99,,2013-12-22 04:03:00,
2013-12-21 23:23:00,33.0,32.0,29.94,North,5,8.0,13.0,95,0.00,,,0.43,,2013-12-22 04:23:00,
2013-12-21 23:53:00,32.0,31.0,29.93,NNE,32,8.0,16.0,95,0.01,,,0.43,,2013-12-22 04:53:00,